Laurence G Hanscom Field Bedford US
ICAO: KBED
IATA: BED
Category: Medium
Scheduled Services: No

Elevation: 133 ft
TransAlt. 18000 ft.

Airport Communications:
BOSTON APP/DEP:124.4
ATIS:124.6
CLNC DEL:121.85
CTAF:118.5
HANSCOM GND:121.7
HANSCOM COMD POST:39.71
HANSCOM TWR:118.5
UNICOM:122.95

KBED Zoom In..

If you have problems with the map follow the link
https://www.worldairports.se/pages/airport.php?
ICAO=KBED

Runways:

(A) RW 05 length 5107 ft width 150 ft
---- / hdg 53

(B) RW 11 length 7011 ft width 150 ft
ILS 111.15 / hdg 113

(C) RW 23 length 5107 ft width 150 ft
---- / hdg 233

(D) RW 29 length 7011 ft width 150 ft
ILS 111.15 / hdg 293

Location; KBED
Day. 16 / Time. 02.56 Zulu
* Altimeter: 30.23
* Temperature: -02° c. -28.4°f.
* Wind from: 030° Speed 07 kn.
Dewpoint: -03° c.
Visibility: 1/2 Statute Miles.
Conditions: Snow.Conditions: Freezing fog.

KBED 160256Z 03007KT 1/2SM R11/3500V5000FT SN FZFG VV007 M02/M03 A3023 RMK AO2 PRESFR SLP255 P0000 60000 T10171033 58050


Wind From 030°
Speed 07 kn.

 
 
jpsmedia.com for Web Design worldairports.se 2018   terms of use